createdAt,value
2022-11-02T00:00:31.403Z,101304.44
2022-11-02T00:02:57.749Z,101300.94
2022-11-02T00:05:24.064Z,101297.47
2022-11-02T00:07:50.297Z,101294.81
2022-11-02T00:10:16.501Z,101296.63
2022-11-02T00:12:42.731Z,101300.13
2022-11-02T00:15:08.929Z,101294.94
2022-11-02T00:17:35.216Z,101298.44
2022-11-02T00:20:01.410Z,101297.59
2022-11-02T00:22:27.608Z,101301.16
2022-11-02T00:24:53.756Z,101299.41
2022-11-02T00:27:19.927Z,101293.41
2022-11-02T00:29:46.101Z,101292.47
2022-11-02T00:32:12.332Z,101295.94
2022-11-02T00:34:38.588Z,101292.56
2022-11-02T00:37:04.779Z,101290.91
2022-11-02T00:39:30.939Z,101288.31
2022-11-02T00:41:57.096Z,101288.28
2022-11-02T00:44:23.277Z,101286.53
2022-11-02T00:46:49.495Z,101288.31
2022-11-02T00:49:15.723Z,101299.56
2022-11-02T00:51:41.907Z,101293.50
2022-11-02T00:54:08.177Z,101287.41
2022-11-02T00:56:34.396Z,101293.44
2022-11-02T00:59:00.623Z,101287.34
2022-11-02T01:01:26.924Z,101290.84
2022-11-02T01:03:53.180Z,101289.13
2022-11-02T01:06:19.352Z,101291.78
2022-11-02T01:08:45.553Z,101289.16
2022-11-02T01:11:11.769Z,101290.94
2022-11-02T01:13:37.988Z,101293.53
2022-11-02T01:16:04.227Z,101285.91
2022-11-02T01:18:30.471Z,101285.03
2022-11-02T01:20:56.684Z,101285.03
2022-11-02T01:23:22.927Z,101278.09
2022-11-02T01:25:49.138Z,101287.59
2022-11-02T01:28:15.371Z,101284.94
2022-11-02T01:30:41.579Z,101285.94
2022-11-02T01:33:07.753Z,101284.25
2022-11-02T01:35:33.976Z,101283.47
2022-11-02T01:38:00.185Z,101278.25
2022-11-02T01:40:26.413Z,101276.56
2022-11-02T01:42:52.639Z,101275.78
2022-11-02T01:45:18.831Z,101279.16
2022-11-02T01:47:45.000Z,101280.03
2022-11-02T01:50:11.167Z,101277.34
2022-11-02T01:52:37.375Z,101279.00
2022-11-02T01:55:03.765Z,101284.00
2022-11-02T01:57:29.970Z,101278.75
2022-11-02T01:59:56.153Z,101274.34
2022-11-02T02:02:22.427Z,101275.03
2022-11-02T02:04:48.758Z,101280.22
2022-11-02T02:07:14.994Z,101269.78
2022-11-02T02:09:41.189Z,101269.91
2022-11-02T02:12:07.443Z,101271.38
2022-11-02T02:14:33.671Z,101263.47
2022-11-02T02:16:59.839Z,101267.78
2022-11-02T02:19:26.031Z,101266.84
2022-11-02T02:21:52.259Z,101262.47
2022-11-02T02:24:18.464Z,101262.47
2022-11-02T02:26:44.719Z,101265.97
2022-11-02T02:29:10.935Z,101261.59
2022-11-02T02:31:37.129Z,101253.78
2022-11-02T02:34:03.348Z,101244.31
2022-11-02T02:36:29.583Z,101253.84
2022-11-02T02:38:55.785Z,101259.06
2022-11-02T02:41:21.993Z,101253.03
2022-11-02T02:43:48.177Z,101253.97
2022-11-02T02:46:14.597Z,101250.69
2022-11-02T02:48:40.853Z,101259.50
2022-11-02T02:51:07.067Z,101255.25
2022-11-02T02:53:33.281Z,101271.72
2022-11-02T02:55:59.507Z,101259.66
2022-11-02T02:58:25.717Z,101261.41
2022-11-02T03:00:51.969Z,101256.28
2022-11-02T03:03:18.193Z,101254.66
2022-11-02T03:05:44.445Z,101247.75
2022-11-02T03:08:10.610Z,101238.28
2022-11-02T03:10:36.833Z,101245.25
2022-11-02T03:13:03.031Z,101241.78
2022-11-02T03:15:29.262Z,101246.16
2022-11-02T03:17:55.465Z,101246.25
2022-11-02T03:20:21.652Z,101240.41
2022-11-02T03:22:47.895Z,101236.22
2022-11-02T03:25:14.126Z,101243.19
2022-11-02T03:27:40.308Z,101232.66
2022-11-02T03:30:06.538Z,101235.84
2022-11-02T03:32:32.745Z,101242.69
2022-11-02T03:34:58.978Z,101234.94
2022-11-02T03:37:25.521Z,101245.44
2022-11-02T03:39:51.721Z,101256.69
2022-11-02T03:42:17.987Z,101258.16
2022-11-02T03:44:44.188Z,101253.59
2022-11-02T03:47:10.417Z,101258.41
2022-11-02T03:49:36.647Z,101258.91
2022-11-02T03:52:02.880Z,101256.97
2022-11-02T03:54:29.086Z,101255.78
2022-11-02T03:56:55.363Z,101256.22
2022-11-02T03:59:21.571Z,101252.00
2022-11-02T04:01:47.871Z,101249.69
2022-11-02T04:04:14.140Z,101257.00
2022-11-02T04:06:40.356Z,101260.94
2022-11-02T04:09:06.584Z,101257.13
2022-11-02T04:11:32.763Z,101258.38
2022-11-02T04:13:58.988Z,101260.72
2022-11-02T04:16:28.380Z,101270.00
2022-11-02T04:18:54.709Z,101270.00
2022-11-02T04:21:20.895Z,101279.50
2022-11-02T04:23:47.094Z,101271.63
2022-11-02T04:26:13.288Z,101279.31
2022-11-02T04:28:39.496Z,101283.59
2022-11-02T04:31:05.691Z,101287.94
2022-11-02T04:33:31.927Z,101293.31
2022-11-02T04:35:58.098Z,101297.59
2022-11-02T04:38:24.308Z,101302.75
2022-11-02T04:40:50.503Z,101303.53
2022-11-02T04:43:16.709Z,101310.41
2022-11-02T04:45:42.932Z,101308.63
2022-11-02T04:48:09.192Z,101303.34
2022-11-02T04:50:35.423Z,101295.44
2022-11-02T04:53:01.628Z,101303.19
2022-11-02T04:55:28.046Z,101302.19
2022-11-02T04:57:54.231Z,101302.22
2022-11-02T05:00:20.446Z,101306.00
2022-11-02T05:02:46.830Z,101306.94
2022-11-02T05:05:13.082Z,101307.19
2022-11-02T05:07:39.325Z,101306.44
2022-11-02T05:10:05.512Z,101305.41
2022-11-02T05:12:31.735Z,101302.97
2022-11-02T05:14:57.961Z,101309.81
2022-11-02T05:17:24.189Z,101312.31
2022-11-02T05:19:50.415Z,101314.09
2022-11-02T05:22:16.611Z,101314.75
2022-11-02T05:24:42.803Z,101321.53
2022-11-02T05:27:09.032Z,101318.03
2022-11-02T05:29:35.229Z,101325.09
2022-11-02T05:32:01.486Z,101324.22
2022-11-02T05:34:27.673Z,101319.69
2022-11-02T05:36:53.810Z,101319.88
2022-11-02T05:39:19.934Z,101328.72
2022-11-02T05:41:48.025Z,101327.94
2022-11-02T05:44:14.156Z,101332.56
2022-11-02T05:46:40.341Z,101337.09
2022-11-02T05:49:06.489Z,101330.50
2022-11-02T05:51:32.627Z,101336.81
2022-11-02T05:53:58.838Z,101337.88
2022-11-02T05:56:25.451Z,101338.91
2022-11-02T06:01:22.811Z,101332.28
2022-11-02T06:03:53.199Z,101331.63
2022-11-02T06:06:20.030Z,101340.50
2022-11-02T06:08:46.159Z,101344.97
2022-11-02T06:11:12.286Z,101353.84
2022-11-02T06:13:38.426Z,101363.56
2022-11-02T06:16:04.570Z,101361.13
2022-11-02T06:18:30.715Z,101369.91
2022-11-02T06:20:56.838Z,101380.16
2022-11-02T06:23:23.007Z,101376.75
2022-11-02T06:25:49.146Z,101380.34
2022-11-02T06:28:15.390Z,101383.66
2022-11-02T06:30:41.589Z,101392.44
2022-11-02T06:33:07.787Z,101388.06
2022-11-02T06:35:33.929Z,101399.22
2022-11-02T06:38:00.121Z,101396.63
2022-11-02T06:40:26.706Z,101395.63
2022-11-02T06:43:14.990Z,101394.63
2022-11-02T06:45:39.129Z,101396.16
2022-11-02T06:48:05.254Z,101397.72
2022-11-02T06:50:31.437Z,101412.22
2022-11-02T06:52:57.644Z,101402.44
2022-11-02T06:55:23.756Z,101376.75
2022-11-02T06:57:49.947Z,101408.03
2022-11-02T07:00:18.063Z,101407.00
2022-11-02T07:02:47.269Z,101412.19
2022-11-02T07:05:13.535Z,101417.25
2022-11-02T07:07:39.672Z,101422.50
2022-11-02T07:10:05.916Z,101431.88
2022-11-02T07:12:32.082Z,101427.44
2022-11-02T07:14:58.264Z,101436.09
2022-11-02T07:17:29.535Z,101441.06
2022-11-02T07:19:58.092Z,101444.50
2022-11-02T07:22:24.310Z,101446.97
2022-11-02T07:24:50.494Z,101459.03
2022-11-02T07:27:16.675Z,101464.00
2022-11-02T07:29:42.909Z,101463.91
2022-11-02T07:32:09.171Z,101459.44
2022-11-02T07:34:35.385Z,101465.44
2022-11-02T07:37:01.747Z,101468.81
2022-11-02T07:39:27.971Z,101473.03
2022-11-02T07:41:54.181Z,101470.38
2022-11-02T07:44:20.416Z,101471.22
2022-11-02T07:46:46.653Z,101475.59
2022-11-02T07:49:16.024Z,101480.00
2022-11-02T07:51:45.038Z,101483.22
2022-11-02T07:54:11.237Z,101481.19
2022-11-02T07:56:37.464Z,101489.38
2022-11-02T07:59:03.683Z,101489.84
2022-11-02T08:01:29.921Z,101500.84
2022-11-02T08:03:56.168Z,101502.00
2022-11-02T08:06:22.296Z,101504.31
2022-11-02T08:08:48.538Z,101513.50
2022-11-02T08:11:14.756Z,101517.59
2022-11-02T08:13:40.977Z,101511.00
2022-11-02T08:16:07.191Z,101510.63
2022-11-02T08:18:33.401Z,101512.41
2022-11-02T08:20:59.628Z,101511.41
2022-11-02T08:23:25.841Z,101516.56
2022-11-02T08:25:52.061Z,101514.84
2022-11-02T08:28:18.273Z,101524.31
2022-11-02T08:30:44.468Z,101520.44
2022-11-02T08:33:10.692Z,101515.28
2022-11-02T08:35:36.921Z,101515.56
2022-11-02T08:38:03.586Z,101513.22
2022-11-02T08:40:30.104Z,101515.81
2022-11-02T08:42:56.363Z,101512.44
2022-11-02T08:45:22.525Z,101514.78
2022-11-02T08:47:48.937Z,101515.16
2022-11-02T08:50:15.333Z,101522.25
2022-11-02T08:52:41.541Z,101527.88
2022-11-02T08:55:07.768Z,101520.97
2022-11-02T08:57:33.940Z,101526.81
2022-11-02T09:00:00.147Z,101534.81
2022-11-02T09:02:26.417Z,101545.38
2022-11-02T09:04:52.663Z,101536.13
2022-11-02T09:07:18.879Z,101542.91
2022-11-02T09:09:45.060Z,101537.84
2022-11-02T09:12:11.276Z,101541.44
2022-11-02T09:14:37.503Z,101535.25
2022-11-02T09:17:03.709Z,101527.16
2022-11-02T09:19:29.944Z,101530.03
2022-11-02T09:21:56.156Z,101528.97
2022-11-02T09:24:22.329Z,101532.03
2022-11-02T09:26:48.509Z,101531.63
2022-11-02T09:29:14.780Z,101529.56
2022-11-02T09:31:40.973Z,101530.44
2022-11-02T09:34:07.264Z,101527.03
2022-11-02T09:36:33.480Z,101529.38
2022-11-02T09:38:59.653Z,101526.03
2022-11-02T09:41:25.909Z,101524.13
2022-11-02T09:43:52.080Z,101526.84
2022-11-02T09:46:18.287Z,101529.22
2022-11-02T09:48:44.484Z,101522.72
2022-11-02T09:51:10.721Z,101510.59
2022-11-02T09:53:36.888Z,101521.06
2022-11-02T09:56:03.091Z,101509.78
2022-11-02T09:58:29.220Z,101505.47
2022-11-02T10:00:59.334Z,101502.72
2022-11-02T10:03:27.925Z,101512.41
2022-11-02T10:05:54.039Z,101506.03
2022-11-02T10:08:20.169Z,101511.00
2022-11-02T10:10:46.374Z,101522.47
2022-11-02T10:13:12.562Z,101518.38
2022-11-02T10:15:38.772Z,101528.72
2022-11-02T10:18:04.932Z,101517.66
2022-11-02T10:20:31.328Z,101515.06
2022-11-02T10:22:57.486Z,101525.22
2022-11-02T10:25:23.638Z,101519.88
2022-11-02T10:27:49.863Z,101524.53
2022-11-02T10:30:16.141Z,101513.25
2022-11-02T10:35:31.249Z,101512.25
2022-11-02T10:37:55.696Z,101517.09
2022-11-02T10:40:21.859Z,101511.25
2022-11-02T10:42:48.155Z,101510.03
2022-11-02T10:45:14.328Z,101512.69
2022-11-02T10:47:40.485Z,101505.44
2022-11-02T10:50:11.926Z,101507.75
2022-11-02T10:52:38.513Z,101503.69
2022-11-02T10:55:04.675Z,101503.22
2022-11-02T10:57:30.839Z,101505.50
2022-11-02T10:59:57.178Z,101499.78
2022-11-02T11:02:23.345Z,101506.19
2022-11-02T11:04:49.483Z,101501.59
2022-11-02T11:07:15.878Z,101500.34
2022-11-02T11:09:46.514Z,101495.31
2022-11-02T11:12:13.112Z,101496.69
2022-11-02T11:20:11.892Z,101491.72
2022-11-02T11:22:38.131Z,101483.50
2022-11-02T11:25:04.291Z,101481.63
2022-11-02T11:27:30.479Z,101485.75
2022-11-02T11:29:56.629Z,101489.06
2022-11-02T11:32:28.669Z,101484.03
2022-11-02T11:34:56.259Z,101480.28
2022-11-02T11:37:22.542Z,101473.66
2022-11-02T11:39:52.434Z,101492.53
2022-11-02T11:42:21.115Z,101481.97
2022-11-02T11:44:47.414Z,101442.88
2022-11-02T11:47:13.613Z,101478.50
2022-11-02T11:50:07.138Z,101470.38
2022-11-02T11:52:31.179Z,101470.13
2022-11-02T11:54:58.316Z,101461.25
2022-11-02T11:57:24.798Z,101475.94
2022-11-02T11:59:51.149Z,101466.38
2022-11-02T12:02:17.611Z,101480.69
2022-11-02T12:04:44.010Z,101465.47
2022-11-02T12:07:10.187Z,101464.31
2022-11-02T12:09:36.344Z,101455.00
2022-11-02T12:12:02.601Z,101450.56
2022-11-02T12:14:28.806Z,101459.03
2022-11-02T12:16:55.018Z,101445.00
2022-11-02T12:19:21.277Z,101439.91
2022-11-02T12:21:47.451Z,101435.28
2022-11-02T12:24:13.675Z,101440.72
2022-11-02T12:26:39.933Z,101447.88
2022-11-02T12:29:06.198Z,101440.91
2022-11-02T12:31:32.415Z,101433.41
2022-11-02T12:33:58.648Z,101436.38
2022-11-02T12:36:24.820Z,101449.44
2022-11-02T12:38:51.006Z,101450.56
2022-11-02T12:41:17.194Z,101443.03
2022-11-02T12:43:43.364Z,101429.69
2022-11-02T12:46:09.606Z,101433.97
2022-11-02T12:48:35.799Z,101430.56
2022-11-02T12:51:01.993Z,101433.09
2022-11-02T12:53:28.242Z,101433.53
2022-11-02T12:55:54.487Z,101434.66
2022-11-02T12:58:20.689Z,101436.44
2022-11-02T13:00:46.887Z,101434.09
2022-11-02T13:03:13.289Z,101440.31
2022-11-02T13:05:39.534Z,101428.72
2022-11-02T13:08:08.258Z,101422.16
2022-11-02T13:10:34.592Z,101436.16
2022-11-02T13:13:00.982Z,101418.00
2022-11-02T13:15:27.161Z,101421.75
2022-11-02T13:17:53.390Z,101416.56
2022-11-02T13:20:19.556Z,101414.75
2022-11-02T13:22:45.743Z,101414.97
2022-11-02T13:25:12.009Z,101408.41
2022-11-02T13:27:39.260Z,101417.50
2022-11-02T13:30:06.560Z,101417.19
2022-11-02T13:32:34.171Z,101414.56
2022-11-02T13:35:00.485Z,101415.94
2022-11-02T13:37:26.693Z,101411.34
2022-11-02T13:39:52.890Z,101413.50
2022-11-02T13:42:19.017Z,101404.88
2022-11-02T13:44:45.207Z,101411.38
2022-11-02T13:47:11.337Z,101404.28
2022-11-02T13:49:37.550Z,101398.66
2022-11-02T13:52:03.722Z,101396.41
2022-11-02T13:54:29.947Z,101397.94
2022-11-02T13:56:56.104Z,101404.50
2022-11-02T13:59:22.300Z,101402.28
2022-11-02T14:01:48.696Z,101410.16
2022-11-02T14:04:14.956Z,101413.41
2022-11-02T14:06:41.175Z,101411.91
2022-11-02T14:09:07.360Z,101409.78
2022-11-02T14:11:33.551Z,101401.00
2022-11-02T14:13:59.735Z,101399.94
2022-11-02T14:16:26.034Z,101403.44
2022-11-02T14:18:52.407Z,101390.53
2022-11-02T14:21:18.616Z,101392.88
2022-11-02T14:23:44.797Z,101398.81
2022-11-02T14:26:10.979Z,101401.38
2022-11-02T14:28:37.191Z,101395.78
2022-11-02T14:31:03.378Z,101387.44
2022-11-02T14:33:29.579Z,101387.94
2022-11-02T14:35:55.762Z,101383.66
2022-11-02T14:38:21.983Z,101385.09
2022-11-02T14:40:48.133Z,101388.91
2022-11-02T14:43:14.323Z,101382.66
2022-11-02T14:45:40.483Z,101381.31
2022-11-02T14:48:06.697Z,101386.13
2022-11-02T14:50:36.198Z,101381.38
2022-11-02T14:53:02.587Z,101376.97
2022-11-02T14:55:28.952Z,101385.03
2022-11-02T14:57:55.278Z,101383.06
2022-11-02T15:00:23.802Z,101375.19
2022-11-02T15:02:50.009Z,101367.44
2022-11-02T15:05:16.210Z,101359.09
2022-11-02T15:07:42.458Z,101364.38
2022-11-02T15:10:08.658Z,101369.69
2022-11-02T15:12:34.927Z,101375.03
2022-11-02T15:15:01.081Z,101367.00
2022-11-02T15:17:27.277Z,101363.94
2022-11-02T15:19:53.537Z,101359.75
2022-11-02T15:22:19.772Z,101366.72
2022-11-02T15:24:46.090Z,101353.66
2022-11-02T15:27:12.324Z,101353.81
2022-11-02T15:29:38.515Z,101364.88
2022-11-02T15:32:04.710Z,101360.47
2022-11-02T15:34:30.941Z,101367.44
2022-11-02T15:36:57.205Z,101368.31
2022-11-02T15:39:26.351Z,101361.97
2022-11-02T15:41:52.554Z,101358.88
2022-11-02T15:44:18.716Z,101359.69
2022-11-02T15:46:44.906Z,101354.50
2022-11-02T15:49:11.128Z,101355.16
2022-11-02T15:51:37.276Z,101354.25
2022-11-02T15:54:03.532Z,101352.41
2022-11-02T15:56:29.786Z,101358.25
2022-11-02T15:58:56.043Z,101356.97
2022-11-02T16:01:22.414Z,101365.44
2022-11-02T16:03:48.752Z,101364.97
2022-11-02T16:06:15.010Z,101360.84
2022-11-02T16:08:41.242Z,101355.31
2022-11-02T16:11:07.497Z,101342.19
2022-11-02T16:13:48.806Z,101348.50
2022-11-02T16:16:19.945Z,101346.41
2022-11-02T16:18:46.156Z,101353.81
2022-11-02T16:21:12.417Z,101344.50
2022-11-02T16:23:38.655Z,101344.94
2022-11-02T16:26:04.835Z,101345.53
2022-11-02T16:28:31.057Z,101347.47
2022-11-02T16:30:57.224Z,101352.19
2022-11-02T16:33:23.416Z,101356.03
2022-11-02T16:35:49.728Z,101350.22
2022-11-02T16:38:15.972Z,101350.53
2022-11-02T16:40:42.158Z,101349.03
2022-11-02T16:43:08.383Z,101341.44
2022-11-02T16:45:37.174Z,101340.16
2022-11-02T16:48:06.864Z,101340.25
2022-11-02T16:50:33.388Z,101344.91
2022-11-02T16:52:59.708Z,101349.50
2022-11-02T16:55:25.931Z,101344.53
2022-11-02T16:57:52.511Z,101339.59
2022-11-02T17:00:18.761Z,101338.91
2022-11-02T17:02:44.965Z,101337.66
2022-11-02T17:05:11.170Z,101333.44
2022-11-02T17:07:37.469Z,101341.53
2022-11-02T17:10:05.946Z,101328.72
2022-11-02T17:12:32.266Z,101326.22
2022-11-02T17:14:58.482Z,101333.38
2022-11-02T17:17:25.687Z,101328.28
2022-11-02T17:19:51.818Z,101330.22
2022-11-02T17:22:17.985Z,101334.53
2022-11-02T17:24:44.158Z,101336.41
2022-11-02T17:27:10.332Z,101336.63
2022-11-02T17:29:36.469Z,101335.09
2022-11-02T17:32:02.600Z,101334.31
2022-11-02T17:34:28.745Z,101330.22
2022-11-02T17:36:54.887Z,101327.00
2022-11-02T17:42:11.635Z,101334.03
2022-11-02T17:44:37.855Z,101333.31
2022-11-02T17:47:04.036Z,101332.69
2022-11-02T17:49:30.246Z,101335.31
2022-11-02T17:51:56.456Z,101337.38
2022-11-02T17:54:22.613Z,101337.44
2022-11-02T17:56:48.788Z,101337.47
2022-11-02T17:59:14.969Z,101341.03
2022-11-02T18:01:41.361Z,101334.13
2022-11-02T18:04:07.603Z,101338.56
2022-11-02T18:06:33.814Z,101336.88
2022-11-02T18:09:00.040Z,101338.72
2022-11-02T18:11:26.784Z,101337.88
2022-11-02T18:16:33.105Z,101323.41
2022-11-02T18:18:59.261Z,101326.78
2022-11-02T18:21:25.439Z,101326.06
2022-11-02T18:23:51.664Z,101317.50
2022-11-02T18:26:17.879Z,101326.25
2022-11-02T18:28:44.011Z,101315.88
2022-11-02T18:31:10.145Z,101315.88
2022-11-02T18:33:36.383Z,101308.19
2022-11-02T18:36:02.554Z,101303.03
2022-11-02T18:38:28.734Z,101310.16
2022-11-02T18:40:54.920Z,101299.75
2022-11-02T18:43:21.061Z,101307.56
2022-11-02T18:45:47.238Z,101307.59
2022-11-02T18:48:13.385Z,101311.94
2022-11-02T18:50:39.564Z,101306.00
2022-11-02T18:53:05.763Z,101297.38
2022-11-02T18:55:31.936Z,101297.31
2022-11-02T18:57:58.085Z,101300.88
2022-11-02T19:00:24.263Z,101305.25
2022-11-02T19:02:50.526Z,101304.47
2022-11-02T19:05:16.691Z,101293.25
2022-11-02T19:07:42.853Z,101288.94
2022-11-02T19:10:09.007Z,101289.81
2022-11-02T19:12:35.131Z,101290.81
2022-11-02T19:15:01.298Z,101291.78
2022-11-02T19:17:27.453Z,101279.72
2022-11-02T19:19:53.644Z,101280.59
2022-11-02T19:22:19.821Z,101291.00
2022-11-02T19:24:45.985Z,101287.66
2022-11-02T19:27:12.174Z,101286.81
2022-11-02T19:29:38.345Z,101285.09
2022-11-02T19:32:04.534Z,101278.22
2022-11-02T19:34:30.696Z,101274.00
2022-11-02T19:36:56.915Z,101279.19
2022-11-02T19:39:23.095Z,101274.91
2022-11-02T19:41:49.325Z,101279.34
2022-11-02T19:44:15.454Z,101286.28
2022-11-02T19:49:07.843Z,101279.41
2022-11-02T19:51:34.009Z,101276.88
2022-11-02T19:54:00.270Z,101265.66
2022-11-02T19:56:26.426Z,101269.16
2022-11-02T19:58:52.573Z,101271.06
2022-11-02T20:01:18.856Z,101278.03
2022-11-02T20:03:45.099Z,101271.22
2022-11-02T20:06:11.311Z,101273.03
2022-11-02T20:08:37.447Z,101274.69
2022-11-02T20:11:03.652Z,101272.16
2022-11-02T20:13:29.801Z,101269.53
2022-11-02T20:15:55.957Z,101263.41
2022-11-02T20:18:22.564Z,101264.25
2022-11-02T20:20:49.094Z,101269.31
2022-11-02T20:23:15.324Z,101265.00
2022-11-02T20:25:41.571Z,101270.16
2022-11-02T20:28:08.017Z,101266.59
2022-11-02T20:30:34.605Z,101256.09
2022-11-02T20:33:00.759Z,101253.53
2022-11-02T20:35:26.924Z,101251.75
2022-11-02T20:37:53.181Z,101240.41
2022-11-02T20:40:19.345Z,101245.59
2022-11-02T20:42:45.494Z,101245.59
2022-11-02T20:45:11.668Z,101241.28
2022-11-02T20:47:37.933Z,101234.38
2022-11-02T20:50:04.094Z,101235.22
2022-11-02T20:55:24.504Z,101231.00
2022-11-02T20:57:50.641Z,101223.28
2022-11-02T21:00:16.793Z,101224.16
2022-11-02T21:02:42.953Z,101226.84
2022-11-02T21:05:09.205Z,101217.41
2022-11-02T21:07:35.346Z,101224.41
2022-11-02T21:10:01.520Z,101226.09
2022-11-02T21:12:27.639Z,101217.41
2022-11-02T21:14:53.816Z,101213.84
2022-11-02T21:17:19.942Z,101212.03
2022-11-02T21:19:46.080Z,101213.69
2022-11-02T21:22:12.198Z,101210.94
2022-11-02T21:24:38.352Z,101208.31
2022-11-02T21:27:04.505Z,101208.28
2022-11-02T21:29:30.655Z,101203.03
2022-11-02T21:31:56.823Z,101201.34
2022-11-02T21:34:22.963Z,101200.44
2022-11-02T21:36:49.089Z,101196.22
2022-11-02T21:39:15.240Z,101193.63
2022-11-02T21:41:41.368Z,101188.38
2022-11-02T21:44:07.523Z,101189.13
2022-11-02T21:46:33.694Z,101188.03
2022-11-02T21:48:59.847Z,101188.81
2022-11-02T21:51:25.971Z,101189.47
2022-11-02T21:53:52.130Z,101187.50
2022-11-02T21:56:18.250Z,101188.22
2022-11-02T21:58:46.063Z,101182.88
2022-11-02T22:01:12.689Z,101185.41
2022-11-02T22:03:38.936Z,101184.44
2022-11-02T22:06:05.077Z,101187.84
2022-11-02T22:08:31.189Z,101184.47
2022-11-02T22:10:57.333Z,101185.44
2022-11-02T22:13:23.441Z,101182.03
2022-11-02T22:15:49.579Z,101177.88
2022-11-02T22:18:15.719Z,101165.06
2022-11-02T22:20:41.875Z,101168.84
2022-11-02T22:23:08.228Z,101172.41
2022-11-02T22:25:34.563Z,101163.09
2022-11-02T22:28:00.705Z,101170.97
2022-11-02T22:30:26.828Z,101177.09
2022-11-02T22:32:52.961Z,101169.34
2022-11-02T22:35:19.072Z,101164.25
2022-11-02T22:37:45.215Z,101166.91
2022-11-02T22:40:11.339Z,101161.81
2022-11-02T22:42:39.879Z,101163.59
2022-11-02T22:45:08.615Z,101157.66
2022-11-02T22:47:34.731Z,101156.00
2022-11-02T22:50:00.886Z,101160.38
2022-11-02T22:52:27.056Z,101155.19
2022-11-02T22:54:53.165Z,101152.59
2022-11-02T22:57:19.302Z,101139.63
2022-11-02T22:59:45.449Z,101140.59
2022-11-02T23:02:11.632Z,101143.22
2022-11-02T23:04:37.778Z,101132.97
2022-11-02T23:07:03.912Z,101138.25
2022-11-02T23:09:30.050Z,101139.97
2022-11-02T23:11:56.195Z,101133.16
2022-11-02T23:14:22.308Z,101124.56
2022-11-02T23:16:48.422Z,101128.03
2022-11-02T23:19:14.547Z,101122.88
2022-11-02T23:21:40.684Z,101122.88
2022-11-02T23:24:06.799Z,101118.63
2022-11-02T23:26:32.903Z,101112.59
2022-11-02T23:28:59.051Z,101109.19
2022-11-02T23:31:25.156Z,101110.00
2022-11-02T23:33:51.288Z,101114.41
2022-11-02T23:36:17.435Z,101117.94
2022-11-02T23:38:43.565Z,101116.19
2022-11-02T23:41:09.692Z,101106.72
2022-11-02T23:43:35.827Z,101115.41
2022-11-02T23:46:01.958Z,101113.69
2022-11-02T23:48:28.099Z,101118.06
2022-11-02T23:50:54.250Z,101113.75
2022-11-02T23:53:20.373Z,101123.38
2022-11-02T23:55:46.498Z,101122.53
2022-11-02T23:58:12.662Z,101113.13
